createdAt,value
2022-10-01T00:02:19.594Z,12.31
2022-10-01T00:04:52.673Z,12.40
2022-10-01T00:07:22.117Z,12.47
2022-10-01T00:09:49.589Z,12.30
2022-10-01T00:12:21.604Z,12.27
2022-10-01T00:14:56.029Z,12.32
2022-10-01T00:17:26.809Z,12.33
2022-10-01T00:19:56.331Z,12.32
2022-10-01T00:22:32.271Z,12.38
2022-10-01T00:25:02.692Z,12.53
2022-10-01T00:27:41.280Z,12.67
2022-10-01T00:30:12.588Z,12.76
2022-10-01T00:32:41.359Z,12.79
2022-10-01T00:35:22.294Z,12.49
2022-10-01T00:37:57.273Z,12.46
2022-10-01T00:40:29.717Z,12.44
2022-10-01T00:43:05.226Z,12.41
2022-10-01T00:45:38.515Z,12.34
2022-10-01T00:48:13.435Z,12.42
2022-10-01T00:50:53.043Z,12.36
2022-10-01T00:53:25.593Z,12.52
2022-10-01T00:56:06.766Z,12.52
2022-10-01T00:58:57.294Z,12.60
2022-10-01T01:01:34.836Z,12.56
2022-10-01T01:04:20.548Z,12.48
2022-10-01T01:07:00.596Z,12.41
2022-10-01T01:09:39.665Z,12.55
2022-10-01T01:12:29.561Z,12.71
2022-10-01T01:15:03.051Z,12.71
2022-10-01T01:17:48.056Z,12.55
2022-10-01T01:20:35.176Z,12.54
2022-10-01T01:23:10.313Z,12.50
2022-10-01T01:25:57.538Z,12.46
2022-10-01T01:28:33.556Z,12.71
2022-10-01T01:31:17.870Z,12.77
2022-10-01T01:33:55.892Z,12.75
2022-10-01T01:36:38.680Z,12.79
2022-10-01T01:39:14.681Z,12.80
2022-10-01T01:41:59.317Z,12.73
2022-10-01T01:44:37.088Z,12.43
2022-10-01T01:47:08.544Z,12.31
2022-10-01T01:49:43.831Z,12.27
2022-10-01T01:52:19.372Z,12.25
2022-10-01T01:54:50.271Z,12.24
2022-10-01T01:57:34.348Z,12.23
2022-10-01T02:00:07.526Z,12.33
2022-10-01T02:02:39.295Z,12.33
2022-10-01T02:05:20.384Z,12.38
2022-10-01T02:07:52.914Z,12.40
2022-10-01T02:10:32.029Z,12.41
2022-10-01T02:13:15.426Z,12.35
2022-10-01T02:16:03.795Z,12.61
2022-10-01T02:18:41.969Z,12.58
2022-10-01T02:21:47.345Z,12.44
2022-10-01T02:24:16.814Z,12.38
2022-10-01T02:26:50.480Z,12.41
2022-10-01T02:29:33.487Z,12.57
2022-10-01T02:32:14.360Z,12.43
2022-10-01T02:34:50.663Z,12.38
2022-10-01T02:37:28.938Z,12.42
2022-10-01T02:39:59.526Z,12.54
2022-10-01T02:42:35.874Z,12.51
2022-10-01T02:45:06.927Z,12.57
2022-10-01T02:47:52.019Z,12.56
2022-10-01T02:50:32.880Z,12.58
2022-10-01T02:53:11.697Z,12.59
2022-10-01T02:55:42.525Z,12.49
2022-10-01T02:58:21.085Z,12.41
2022-10-01T03:00:50.631Z,12.42
2022-10-01T03:03:25.663Z,12.39
2022-10-01T03:06:06.612Z,12.40
2022-10-01T03:08:36.673Z,12.37
2022-10-01T03:11:08.723Z,12.42
2022-10-01T03:13:41.201Z,12.40
2022-10-01T03:16:14.278Z,12.36
2022-10-01T03:18:46.627Z,12.35
2022-10-01T03:21:24.451Z,12.35
2022-10-01T03:23:55.689Z,12.37
2022-10-01T03:26:30.958Z,12.36
2022-10-01T03:29:07.612Z,12.41
2022-10-01T03:31:46.099Z,12.41
2022-10-01T03:34:18.531Z,12.40
2022-10-01T03:36:56.880Z,12.44
2022-10-01T03:39:36.641Z,12.54
2022-10-01T03:42:14.087Z,12.48
2022-10-01T03:44:57.187Z,12.45
2022-10-01T03:47:35.043Z,12.55
2022-10-01T03:50:11.510Z,12.47
2022-10-01T03:52:47.856Z,12.42
2022-10-01T03:55:23.209Z,12.42
2022-10-01T03:58:01.704Z,12.42
2022-10-01T04:00:31.527Z,12.45
2022-10-01T04:03:04.591Z,12.49
2022-10-01T04:05:41.656Z,12.42
2022-10-01T04:08:14.743Z,12.45
2022-10-01T04:10:46.836Z,12.46
2022-10-01T04:13:25.537Z,12.45
2022-10-01T04:16:03.608Z,12.48
2022-10-01T04:18:39.619Z,12.45
2022-10-01T04:21:15.674Z,12.45
2022-10-01T04:24:02.916Z,12.45
2022-10-01T04:26:38.128Z,12.47
2022-10-01T04:29:23.004Z,12.58
2022-10-01T04:31:55.726Z,12.57
2022-10-01T04:34:49.264Z,12.57
2022-10-01T04:37:25.133Z,12.58
2022-10-01T04:40:03.286Z,12.58
2022-10-01T04:42:36.650Z,12.59
2022-10-01T04:45:09.125Z,12.60
2022-10-01T04:47:50.778Z,12.53
2022-10-01T04:50:31.939Z,12.58
2022-10-01T04:53:10.561Z,12.60
2022-10-01T04:55:50.696Z,12.55
2022-10-01T04:58:23.004Z,12.55
2022-10-01T05:01:06.667Z,12.49
2022-10-01T05:03:56.896Z,12.48
2022-10-01T05:06:32.173Z,12.44
2022-10-01T05:09:17.473Z,12.55
2022-10-01T05:11:54.612Z,12.52
2022-10-01T05:14:33.582Z,12.53
2022-10-01T05:17:03.410Z,12.52
2022-10-01T05:19:40.616Z,12.60
2022-10-01T05:22:10.221Z,12.63
2022-10-01T05:25:00.491Z,12.60
2022-10-01T05:27:35.504Z,12.65
2022-10-01T05:30:11.325Z,12.68
2022-10-01T05:33:06.342Z,12.68
2022-10-01T05:35:44.360Z,12.84
2022-10-01T05:38:16.574Z,12.91
2022-10-01T05:40:49.328Z,12.92
2022-10-01T05:43:29.857Z,12.87
2022-10-01T05:46:00.778Z,12.88
2022-10-01T05:48:27.759Z,12.89
2022-10-01T05:51:15.405Z,12.96
2022-10-01T05:53:42.260Z,12.89
2022-10-01T05:56:21.325Z,12.88
2022-10-01T05:58:51.161Z,12.90
2022-10-01T06:01:20.777Z,12.90
2022-10-01T06:03:53.162Z,12.90
2022-10-01T06:06:34.352Z,12.88
2022-10-01T06:09:14.722Z,12.90
2022-10-01T06:11:49.179Z,12.90
2022-10-01T06:14:25.164Z,12.92
2022-10-01T06:17:09.988Z,12.89
2022-10-01T06:19:42.277Z,12.94
2022-10-01T06:22:19.733Z,13.07
2022-10-01T06:24:56.830Z,13.12
2022-10-01T06:27:41.524Z,13.02
2022-10-01T06:30:18.016Z,13.14
2022-10-01T06:32:57.130Z,13.14
2022-10-01T06:35:32.660Z,13.20
2022-10-01T06:38:03.147Z,13.22
2022-10-01T06:40:35.672Z,13.23
2022-10-01T06:43:29.315Z,13.27
2022-10-01T06:46:06.078Z,13.31
2022-10-01T06:48:42.552Z,13.31
2022-10-01T06:51:44.499Z,13.34
2022-10-01T06:54:22.084Z,13.33
2022-10-01T06:57:00.212Z,13.43
2022-10-01T06:59:37.274Z,13.42
2022-10-01T07:02:21.852Z,13.45
2022-10-01T07:05:04.735Z,13.49
2022-10-01T07:07:46.335Z,13.50
2022-10-01T07:10:22.329Z,13.50
2022-10-01T07:13:00.433Z,13.55
2022-10-01T07:15:37.420Z,13.66
2022-10-01T07:18:15.284Z,13.62
2022-10-01T07:20:52.543Z,13.76
2022-10-01T07:23:27.538Z,13.82
2022-10-01T07:26:09.407Z,13.82
2022-10-01T07:28:42.599Z,13.80
2022-10-01T07:31:17.497Z,13.85
2022-10-01T07:33:52.785Z,13.98
2022-10-01T07:36:28.484Z,13.99
2022-10-01T07:39:07.557Z,14.03
2022-10-01T07:41:44.928Z,13.94
2022-10-01T07:44:22.220Z,13.87
2022-10-01T07:46:59.198Z,13.88
2022-10-01T07:49:36.830Z,13.93
2022-10-01T07:52:21.248Z,14.16
2022-10-01T07:54:59.264Z,14.24
2022-10-01T07:57:31.752Z,14.23
2022-10-01T08:00:01.462Z,14.29
2022-10-01T08:02:34.039Z,14.37
2022-10-01T08:05:18.589Z,14.57
2022-10-01T08:07:54.277Z,14.69
2022-10-01T08:10:38.308Z,14.76
2022-10-01T08:13:15.938Z,14.97
2022-10-01T08:15:55.538Z,15.06
2022-10-01T08:18:36.298Z,15.14
2022-10-01T08:21:07.927Z,15.25
2022-10-01T08:23:44.154Z,15.39
2022-10-01T08:26:16.697Z,15.31
2022-10-01T08:28:48.576Z,15.35
2022-10-01T08:31:26.264Z,15.39
2022-10-01T08:33:56.323Z,15.30
2022-10-01T08:36:30.856Z,15.38
2022-10-01T08:39:15.780Z,15.64
2022-10-01T08:41:53.812Z,15.69
2022-10-01T08:44:28.696Z,15.70
2022-10-01T08:47:00.825Z,15.72
2022-10-01T08:49:34.913Z,15.77
2022-10-01T08:52:20.058Z,15.63
2022-10-01T08:54:58.132Z,15.62
2022-10-01T08:57:30.390Z,15.63
2022-10-01T09:00:04.831Z,15.49
2022-10-01T09:02:36.211Z,15.51
2022-10-01T09:05:22.118Z,15.51
2022-10-01T09:08:08.298Z,15.67
2022-10-01T09:10:46.902Z,15.69
2022-10-01T09:13:25.028Z,15.90
2022-10-01T09:15:57.484Z,15.83
2022-10-01T09:18:40.890Z,15.86
2022-10-01T09:21:47.671Z,16.08
2022-10-01T09:24:26.653Z,16.17
2022-10-01T09:27:09.334Z,16.38
2022-10-01T09:29:41.063Z,16.48
2022-10-01T09:32:24.188Z,16.63
2022-10-01T09:35:04.054Z,16.59
2022-10-01T09:37:38.947Z,16.79
2022-10-01T09:40:09.402Z,16.97
2022-10-01T09:42:40.154Z,16.90
2022-10-01T09:45:07.402Z,16.84
2022-10-01T09:50:37.910Z,16.82
2022-10-01T09:53:14.477Z,16.84
2022-10-01T09:55:47.106Z,16.97
2022-10-01T09:58:43.292Z,17.05
2022-10-01T10:01:20.816Z,17.13
2022-10-01T10:03:54.727Z,17.23
2022-10-01T10:06:27.556Z,17.26
2022-10-01T10:08:58.576Z,17.54
2022-10-01T10:11:30.402Z,17.53
2022-10-01T10:14:20.698Z,17.64
2022-10-01T10:16:48.719Z,17.74
2022-10-01T10:19:18.225Z,17.74
2022-10-01T10:22:03.295Z,17.90
2022-10-01T10:24:34.991Z,18.11
2022-10-01T10:27:08.110Z,18.22
2022-10-01T10:29:41.755Z,18.26
2022-10-01T10:32:27.492Z,18.28
2022-10-01T10:35:02.896Z,18.52
2022-10-01T10:37:45.255Z,18.48
2022-10-01T10:40:29.514Z,18.51
2022-10-01T10:43:00.460Z,18.54
2022-10-01T10:45:43.435Z,18.70
2022-10-01T10:48:17.075Z,18.84
2022-10-01T10:51:00.982Z,18.92
2022-10-01T10:53:47.372Z,18.76
2022-10-01T10:56:24.574Z,18.78
2022-10-01T10:58:54.127Z,18.87
2022-10-01T11:01:27.759Z,18.77
2022-10-01T11:04:00.252Z,18.83
2022-10-01T11:06:44.098Z,18.89
2022-10-01T11:09:15.389Z,19.06
2022-10-01T11:12:02.560Z,18.95
2022-10-01T11:15:15.900Z,18.99
2022-10-01T11:18:04.246Z,18.87
2022-10-01T11:20:40.399Z,18.83
2022-10-01T11:23:24.311Z,18.83
2022-10-01T11:26:21.133Z,18.94
2022-10-01T11:29:16.442Z,19.08
2022-10-01T11:32:05.522Z,19.24
2022-10-01T11:34:54.415Z,19.05
2022-10-01T11:37:42.263Z,18.94
2022-10-01T11:40:18.437Z,18.92
2022-10-01T11:42:51.648Z,19.11
2022-10-01T11:45:21.736Z,19.22
2022-10-01T11:48:14.234Z,19.48
2022-10-01T11:50:52.459Z,19.82
2022-10-01T11:53:35.713Z,19.75
2022-10-01T11:56:50.721Z,19.54
2022-10-01T11:59:31.189Z,19.80
2022-10-01T12:02:21.511Z,19.91
2022-10-01T12:05:09.003Z,19.87
2022-10-01T12:07:52.869Z,19.93
2022-10-01T12:10:44.938Z,20.11
2022-10-01T12:13:33.458Z,20.12
2022-10-01T12:16:29.124Z,20.32
2022-10-01T12:19:02.876Z,20.48
2022-10-01T12:21:43.781Z,20.62
2022-10-01T12:24:23.178Z,20.38
2022-10-01T12:27:02.849Z,20.13
2022-10-01T12:29:51.676Z,19.90
2022-10-01T12:32:21.358Z,19.75
2022-10-01T12:34:59.951Z,19.59
2022-10-01T12:37:38.980Z,19.41
2022-10-01T12:40:29.308Z,19.38
2022-10-01T12:43:22.193Z,19.47
2022-10-01T12:45:58.398Z,19.47
2022-10-01T12:48:32.215Z,19.47
2022-10-01T12:51:19.753Z,19.54
2022-10-01T12:53:50.738Z,19.47
2022-10-01T12:56:31.057Z,19.57
2022-10-01T12:59:16.893Z,19.49
2022-10-01T13:01:53.098Z,19.40
2022-10-01T13:04:43.464Z,19.32
2022-10-01T13:07:29.425Z,19.10
2022-10-01T13:10:00.176Z,19.02
2022-10-01T13:12:34.382Z,18.97
2022-10-01T13:15:18.267Z,18.90
2022-10-01T13:18:05.484Z,18.81
2022-10-01T13:20:39.645Z,18.74
2022-10-01T13:23:17.157Z,18.98
2022-10-01T13:26:06.985Z,19.35
2022-10-01T13:28:46.082Z,19.39
2022-10-01T13:31:19.795Z,19.29
2022-10-01T13:33:57.009Z,19.29
2022-10-01T13:36:36.242Z,19.08
2022-10-01T13:39:06.609Z,19.11
2022-10-01T13:41:39.605Z,18.83
2022-10-01T13:44:15.838Z,18.99
2022-10-01T13:46:56.275Z,19.05
2022-10-01T13:49:33.975Z,19.30
2022-10-01T13:52:03.451Z,19.55
2022-10-01T13:54:47.633Z,19.70
2022-10-01T13:57:40.794Z,19.99
2022-10-01T14:00:17.062Z,20.10
2022-10-01T14:02:45.675Z,19.94
2022-10-01T14:05:47.558Z,19.82
2022-10-01T14:08:16.852Z,19.28
2022-10-01T14:11:22.330Z,19.39
2022-10-01T14:14:11.486Z,19.24
2022-10-01T14:16:45.998Z,19.02
2022-10-01T14:19:31.322Z,18.83
2022-10-01T14:22:18.085Z,18.98
2022-10-01T14:25:06.840Z,19.01
2022-10-01T14:27:45.317Z,18.48
2022-10-01T14:30:25.904Z,18.41
2022-10-01T14:33:07.881Z,18.55
2022-10-01T14:35:58.371Z,18.41
2022-10-01T14:38:37.090Z,18.17
2022-10-01T14:41:06.440Z,17.85
2022-10-01T14:43:39.478Z,17.60
2022-10-01T14:46:39.887Z,17.61
2022-10-01T14:49:23.015Z,17.46
2022-10-01T14:51:51.643Z,17.09
2022-10-01T14:54:26.398Z,17.12
2022-10-01T14:57:03.438Z,16.98
2022-10-01T14:59:35.732Z,17.08
2022-10-01T15:02:23.323Z,16.93
2022-10-01T15:04:59.622Z,17.16
2022-10-01T15:07:34.151Z,16.98
2022-10-01T15:10:25.813Z,16.52
2022-10-01T15:12:56.744Z,16.54
2022-10-01T15:15:35.994Z,16.55
2022-10-01T15:18:07.198Z,16.38
2022-10-01T15:20:45.389Z,16.40
2022-10-01T15:23:15.311Z,16.34
2022-10-01T15:25:44.055Z,16.34
2022-10-01T15:28:18.627Z,16.28
2022-10-01T15:30:45.606Z,16.09
2022-10-01T15:33:30.164Z,16.14
2022-10-01T15:36:04.075Z,16.04
2022-10-01T15:38:37.256Z,15.95
2022-10-01T15:41:30.602Z,15.82
2022-10-01T15:44:03.531Z,15.58
2022-10-01T15:46:39.868Z,15.58
2022-10-01T15:49:21.926Z,15.54
2022-10-01T15:52:19.305Z,15.57
2022-10-01T15:55:03.629Z,15.44
2022-10-01T15:57:31.850Z,15.35
2022-10-01T16:00:01.972Z,15.31
2022-10-01T16:02:38.009Z,15.23
2022-10-01T16:07:56.377Z,15.12
2022-10-01T16:10:31.571Z,15.10
2022-10-01T16:13:08.131Z,15.05
2022-10-01T16:15:35.033Z,14.89
2022-10-01T16:18:24.086Z,15.04
2022-10-01T16:21:05.669Z,15.09
2022-10-01T16:23:44.244Z,15.12
2022-10-01T16:26:35.771Z,15.19
2022-10-01T16:29:10.982Z,15.08
2022-10-01T16:31:50.347Z,15.08
2022-10-01T16:34:21.500Z,15.03
2022-10-01T16:36:48.528Z,14.95
2022-10-01T16:39:18.489Z,15.01
2022-10-01T16:42:06.315Z,14.87
2022-10-01T16:44:38.343Z,14.91
2022-10-01T16:47:08.411Z,14.89
2022-10-01T16:49:40.952Z,14.88
2022-10-01T16:52:18.816Z,14.81
2022-10-01T16:54:50.960Z,14.82
2022-10-01T16:57:20.568Z,14.75
2022-10-01T16:59:49.318Z,14.70
2022-10-01T17:02:21.079Z,14.74
2022-10-01T17:04:52.458Z,14.75
2022-10-01T17:07:22.833Z,14.68
2022-10-01T17:09:58.322Z,14.67
2022-10-01T17:12:28.198Z,14.63
2022-10-01T17:15:01.282Z,14.60
2022-10-01T17:17:37.185Z,14.54
2022-10-01T17:20:07.501Z,14.50
2022-10-01T17:22:34.488Z,14.56
2022-10-01T17:25:06.585Z,14.52
2022-10-01T17:27:44.009Z,14.46
2022-10-01T17:30:11.360Z,14.41
2022-10-01T17:32:49.184Z,14.25
2022-10-01T17:35:23.612Z,14.23
2022-10-01T17:37:52.054Z,14.27
2022-10-01T17:40:19.140Z,14.22
2022-10-01T17:42:47.997Z,14.08
2022-10-01T17:45:28.927Z,14.07
2022-10-01T17:48:07.598Z,14.03
2022-10-01T17:50:47.214Z,13.95
2022-10-01T17:53:17.729Z,14.06
2022-10-01T17:55:48.742Z,14.02
2022-10-01T17:58:15.518Z,14.05
2022-10-01T18:00:48.183Z,13.84
2022-10-01T18:03:26.836Z,13.83
2022-10-01T18:06:09.320Z,13.78
2022-10-01T18:08:54.565Z,13.76
2022-10-01T18:11:21.874Z,13.58
2022-10-01T18:13:52.781Z,13.69
2022-10-01T18:16:19.877Z,13.76
2022-10-01T18:21:36.597Z,13.72
2022-10-01T18:24:12.067Z,13.79
2022-10-01T18:26:51.026Z,13.75
2022-10-01T18:29:25.064Z,13.84
2022-10-01T18:32:01.711Z,13.73
2022-10-01T18:35:00.621Z,13.73
2022-10-01T18:37:42.415Z,13.73
2022-10-01T18:40:29.424Z,13.74
2022-10-01T18:43:12.661Z,13.70
2022-10-01T18:45:43.537Z,13.64
2022-10-01T18:48:21.986Z,13.64
2022-10-01T18:50:55.757Z,13.61
2022-10-01T18:53:49.530Z,13.55
2022-10-01T18:56:25.617Z,13.45
2022-10-01T18:59:19.191Z,13.51
2022-10-01T19:01:58.860Z,13.41
2022-10-01T19:04:35.585Z,13.43
2022-10-01T19:07:40.394Z,13.46
2022-10-01T19:10:14.940Z,13.38
2022-10-01T19:13:05.482Z,13.32
2022-10-01T19:15:51.492Z,13.30
2022-10-01T19:18:21.041Z,13.33
2022-10-01T19:21:28.903Z,13.25
2022-10-01T19:23:58.415Z,13.23
2022-10-01T19:26:45.725Z,13.20
2022-10-01T19:29:25.207Z,13.25
2022-10-01T19:32:05.963Z,13.25
2022-10-01T19:34:56.916Z,13.23
2022-10-01T19:37:55.049Z,13.26
2022-10-01T19:40:25.560Z,13.17
2022-10-01T19:43:03.932Z,13.22
2022-10-01T19:45:40.064Z,13.18
2022-10-01T19:48:21.498Z,13.19
2022-10-01T19:51:06.819Z,13.21
2022-10-01T19:53:40.102Z,13.24
2022-10-01T19:56:07.519Z,13.20
2022-10-01T19:58:37.331Z,13.19
2022-10-01T20:01:15.681Z,13.12
2022-10-01T20:03:48.539Z,13.19
2022-10-01T20:09:29.849Z,13.24
2022-10-01T20:12:10.411Z,13.13
2022-10-01T20:15:12.672Z,13.07
2022-10-01T20:17:43.500Z,13.19
2022-10-01T20:20:25.633Z,13.25
2022-10-01T20:22:56.211Z,13.22
2022-10-01T20:25:33.494Z,13.20
2022-10-01T20:28:23.300Z,13.12
2022-10-01T20:31:09.435Z,13.07
2022-10-01T20:33:58.018Z,13.09
2022-10-01T20:36:44.313Z,13.03
2022-10-01T20:39:16.072Z,13.04
2022-10-01T20:41:53.524Z,12.97
2022-10-01T20:44:30.085Z,12.99
2022-10-01T20:47:02.301Z,12.94
2022-10-01T20:49:44.822Z,12.98
2022-10-01T20:52:36.175Z,12.96
2022-10-01T20:55:06.828Z,12.98
2022-10-01T20:57:44.655Z,12.98
2022-10-01T21:00:19.765Z,12.85
2022-10-01T21:03:08.996Z,12.79
2022-10-01T21:06:10.859Z,12.64
2022-10-01T21:09:01.402Z,12.64
2022-10-01T21:11:43.776Z,12.55
2022-10-01T21:14:21.653Z,12.56
2022-10-01T21:16:54.361Z,12.62
2022-10-01T21:19:35.859Z,12.55
2022-10-01T21:22:04.508Z,12.58
2022-10-01T21:24:37.366Z,12.62
2022-10-01T21:27:31.752Z,12.53
2022-10-01T21:30:13.911Z,12.41
2022-10-01T21:33:05.050Z,12.40
2022-10-01T21:35:52.159Z,12.55
2022-10-01T21:38:41.337Z,12.46
2022-10-01T21:41:19.806Z,12.35
2022-10-01T21:44:11.289Z,12.37
2022-10-01T21:47:00.589Z,12.38
2022-10-01T21:52:13.776Z,12.18
2022-10-01T21:55:14.506Z,12.16
2022-10-01T21:58:02.423Z,12.18
2022-10-01T22:00:35.596Z,12.13
2022-10-01T22:03:37.984Z,12.06
2022-10-01T22:06:15.994Z,11.91
2022-10-01T22:08:51.712Z,11.95
2022-10-01T22:11:22.377Z,11.85
2022-10-01T22:14:03.439Z,11.80
2022-10-01T22:16:46.253Z,11.85
2022-10-01T22:19:28.754Z,11.83
2022-10-01T22:22:03.020Z,11.90
2022-10-01T22:24:36.468Z,11.81
2022-10-01T22:27:16.177Z,11.84
2022-10-01T22:29:49.186Z,11.85
2022-10-01T22:32:21.089Z,11.83
2022-10-01T22:35:04.193Z,11.79
2022-10-01T22:37:42.612Z,11.78
2022-10-01T22:40:28.667Z,11.69
2022-10-01T22:43:21.349Z,11.68
2022-10-01T22:45:53.962Z,11.86
2022-10-01T22:48:35.719Z,11.68
2022-10-01T22:51:21.688Z,11.64
2022-10-01T22:54:10.215Z,11.66
2022-10-01T22:56:49.562Z,11.63
2022-10-01T22:59:30.498Z,11.73
2022-10-01T23:02:18.802Z,11.55
2022-10-01T23:04:54.816Z,11.43
2022-10-01T23:07:37.017Z,11.28
2022-10-01T23:10:25.763Z,11.24
2022-10-01T23:13:12.543Z,11.17
2022-10-01T23:15:48.045Z,11.00
2022-10-01T23:18:22.213Z,10.99
2022-10-01T23:21:05.639Z,10.88
2022-10-01T23:23:38.175Z,10.98
2022-10-01T23:26:10.579Z,10.84
2022-10-01T23:28:40.448Z,10.71
2022-10-01T23:31:14.885Z,10.78
2022-10-01T23:33:51.806Z,10.72
2022-10-01T23:36:21.428Z,10.76
2022-10-01T23:38:54.358Z,11.04
2022-10-01T23:41:44.074Z,10.96
2022-10-01T23:44:18.411Z,11.06
2022-10-01T23:46:55.415Z,11.09
2022-10-01T23:49:24.876Z,11.22
2022-10-01T23:52:10.227Z,11.26
2022-10-01T23:54:44.644Z,11.11
2022-10-01T23:57:14.477Z,11.16
2022-10-01T23:59:49.909Z,11.15
